createdAt,value
2023-06-13T00:02:25.033Z,102122.25
2023-06-13T00:04:53.183Z,102133.03
2023-06-13T00:07:19.918Z,102124.25
2023-06-13T00:09:46.787Z,102120.09
2023-06-13T00:12:14.076Z,102122.88
2023-06-13T00:14:40.846Z,102125.63
2023-06-13T00:17:07.488Z,102122.19
2023-06-13T00:19:34.112Z,102122.97
2023-06-13T00:22:01.872Z,102120.38
2023-06-13T00:24:28.657Z,102115.13
2023-06-13T00:26:55.544Z,102114.28
2023-06-13T00:29:22.174Z,102119.75
2023-06-13T00:31:50.433Z,102109.16
2023-06-13T00:34:17.509Z,102109.25
2023-06-13T00:36:45.728Z,102108.50
2023-06-13T00:39:12.887Z,102100.66
2023-06-13T00:41:39.729Z,102107.00
2023-06-13T00:44:07.222Z,102098.19
2023-06-13T00:46:36.262Z,102104.56
2023-06-13T00:49:05.249Z,102105.63
2023-06-13T00:51:36.850Z,102103.97
2023-06-13T00:54:08.075Z,102104.97
2023-06-13T00:56:38.088Z,102104.09
2023-06-13T00:59:05.759Z,102105.13
2023-06-13T01:01:32.652Z,102106.06
2023-06-13T01:04:01.111Z,102106.06
2023-06-13T01:06:31.821Z,102107.88
2023-06-13T01:09:01.516Z,102103.47
2023-06-13T01:11:36.663Z,102097.34
2023-06-13T01:14:41.665Z,102108.19
2023-06-13T01:17:28.413Z,102103.06
2023-06-13T01:20:00.020Z,102103.22
2023-06-13T01:22:46.469Z,102103.22
2023-06-13T01:25:38.527Z,102108.66
2023-06-13T01:28:07.734Z,102104.34
2023-06-13T01:30:36.309Z,102107.00
2023-06-13T01:33:04.578Z,102106.94
2023-06-13T01:35:32.570Z,102108.66
2023-06-13T01:37:59.293Z,102106.03
2023-06-13T01:40:25.937Z,102110.47
2023-06-13T01:42:52.581Z,102103.53
2023-06-13T01:45:19.438Z,102102.72
2023-06-13T01:47:52.190Z,102100.97
2023-06-13T01:50:25.958Z,102103.53
2023-06-13T01:53:03.478Z,102104.38
2023-06-13T01:55:54.402Z,102103.44
2023-06-13T01:58:27.438Z,102111.50
2023-06-13T02:00:58.716Z,102107.03
2023-06-13T02:03:25.684Z,102105.28
2023-06-13T02:05:52.719Z,102104.50
2023-06-13T02:08:19.438Z,102104.56
2023-06-13T02:10:46.646Z,102104.59
2023-06-13T02:13:13.470Z,102112.59
2023-06-13T02:15:40.188Z,102115.31
2023-06-13T02:18:08.310Z,102112.59
2023-06-13T02:20:35.401Z,102124.00
2023-06-13T02:23:05.360Z,102113.22
2023-06-13T02:25:32.506Z,102116.63
2023-06-13T02:27:59.283Z,102112.09
2023-06-13T02:30:26.409Z,102115.56
2023-06-13T02:32:54.216Z,102113.72
2023-06-13T02:35:24.655Z,102118.19
2023-06-13T02:37:54.452Z,102121.75
2023-06-13T02:40:22.140Z,102116.63
2023-06-13T02:42:50.196Z,102110.41
2023-06-13T02:45:17.527Z,102105.03
2023-06-13T02:47:44.928Z,102111.28
2023-06-13T02:50:13.482Z,102109.50
2023-06-13T02:52:40.589Z,102112.94
2023-06-13T02:55:09.049Z,102112.00
2023-06-13T02:57:38.026Z,102106.69
2023-06-13T03:00:08.551Z,102115.59
2023-06-13T03:02:38.093Z,102117.41
2023-06-13T03:05:17.183Z,102119.22
2023-06-13T03:07:47.511Z,102121.03
2023-06-13T03:10:15.660Z,102111.22
2023-06-13T03:12:42.693Z,102111.00
2023-06-13T03:15:09.743Z,102108.31
2023-06-13T03:17:36.942Z,102111.81
2023-06-13T03:20:06.669Z,102110.06
2023-06-13T03:22:33.702Z,102108.28
2023-06-13T03:25:06.200Z,102114.44
2023-06-13T03:27:33.783Z,102112.59
2023-06-13T03:30:01.202Z,102110.75
2023-06-13T03:32:27.977Z,102110.63
2023-06-13T03:34:55.481Z,102105.22
2023-06-13T03:37:22.448Z,102105.13
2023-06-13T03:39:49.151Z,102105.66
2023-06-13T03:42:16.064Z,102106.38
2023-06-13T03:44:48.029Z,102101.69
2023-06-13T03:47:16.071Z,102100.63
2023-06-13T03:49:43.889Z,102100.41
2023-06-13T03:52:12.395Z,102091.38
2023-06-13T03:54:39.426Z,102092.91
2023-06-13T03:57:07.945Z,102086.53
2023-06-13T03:59:35.334Z,102074.81
2023-06-13T04:02:02.041Z,102091.44
2023-06-13T04:04:28.896Z,102090.25
2023-06-13T04:06:56.786Z,102082.81
2023-06-13T04:09:24.709Z,102087.00
2023-06-13T04:11:51.734Z,102084.09
2023-06-13T04:14:18.454Z,102083.84
2023-06-13T04:16:45.214Z,102082.72
2023-06-13T04:19:18.770Z,102085.13
2023-06-13T04:21:47.339Z,102075.00
2023-06-13T04:24:16.075Z,102074.69
2023-06-13T04:26:43.003Z,102075.19
2023-06-13T04:29:10.320Z,102073.06
2023-06-13T04:31:40.034Z,102073.59
2023-06-13T04:34:08.658Z,102070.63
2023-06-13T04:36:37.070Z,102071.28
2023-06-13T04:39:07.686Z,102080.72
2023-06-13T04:41:35.944Z,102066.19
2023-06-13T04:44:04.597Z,102072.09
2023-06-13T04:46:31.798Z,102076.22
2023-06-13T04:48:58.498Z,102078.53
2023-06-13T04:51:27.189Z,102078.19
2023-06-13T04:53:58.371Z,102068.13
2023-06-13T04:56:29.410Z,102073.16
2023-06-13T04:58:57.261Z,102072.84
2023-06-13T05:01:28.208Z,102072.53
2023-06-13T05:03:59.059Z,102067.75
2023-06-13T05:06:28.530Z,102060.22
2023-06-13T05:08:55.451Z,102055.41
2023-06-13T05:11:23.458Z,102066.63
2023-06-13T05:13:50.385Z,102064.50
2023-06-13T05:16:18.523Z,102064.06
2023-06-13T05:18:46.084Z,102053.03
2023-06-13T05:21:18.156Z,102059.78
2023-06-13T05:23:45.631Z,102062.19
2023-06-13T05:26:13.286Z,102061.94
2023-06-13T05:28:41.327Z,102061.59
2023-06-13T05:31:08.378Z,102059.41
2023-06-13T05:33:35.522Z,102066.19
2023-06-13T05:36:02.438Z,102060.47
2023-06-13T05:38:29.098Z,102061.03
2023-06-13T05:40:55.952Z,102052.63
2023-06-13T05:43:22.754Z,102055.78
2023-06-13T05:45:49.735Z,102058.19
2023-06-13T05:48:17.042Z,102059.63
2023-06-13T05:50:43.782Z,102053.94
2023-06-13T05:53:11.425Z,102043.94
2023-06-13T05:55:38.397Z,102053.38
2023-06-13T05:58:05.228Z,102045.97
2023-06-13T06:00:34.069Z,102052.63
2023-06-13T06:03:03.263Z,102049.50
2023-06-13T06:05:30.390Z,102048.25
2023-06-13T06:07:57.391Z,102043.38
2023-06-13T06:10:24.201Z,102054.69
2023-06-13T06:12:51.219Z,102050.75
2023-06-13T06:15:17.922Z,102046.00
2023-06-13T06:17:44.734Z,102042.09
2023-06-13T06:20:12.012Z,102047.00
2023-06-13T06:22:39.197Z,102054.66
2023-06-13T06:25:07.021Z,102040.09
2023-06-13T06:27:33.877Z,102053.09
2023-06-13T06:30:00.675Z,102054.44
2023-06-13T06:32:27.494Z,102053.06
2023-06-13T06:34:55.942Z,102050.84
2023-06-13T06:37:23.749Z,102050.44
2023-06-13T06:39:50.699Z,102040.28
2023-06-13T06:42:17.457Z,102046.22
2023-06-13T06:44:45.539Z,102048.31
2023-06-13T06:47:12.839Z,102041.59
2023-06-13T06:49:39.922Z,102044.72
2023-06-13T06:52:06.979Z,102034.41
2023-06-13T06:54:35.367Z,102036.69
2023-06-13T06:57:03.512Z,102037.22
2023-06-13T06:59:31.128Z,102036.75
2023-06-13T07:01:58.315Z,102035.38
2023-06-13T07:04:26.218Z,102033.00
2023-06-13T07:06:56.554Z,102028.94
2023-06-13T07:09:23.332Z,102039.19
2023-06-13T07:11:50.045Z,102040.63
2023-06-13T07:14:17.529Z,102033.94
2023-06-13T07:16:44.367Z,102035.25
2023-06-13T07:19:11.404Z,102039.31
2023-06-13T07:21:38.080Z,102033.56
2023-06-13T07:24:08.087Z,102025.88
2023-06-13T07:26:36.224Z,102029.19
2023-06-13T07:29:03.405Z,102023.41
2023-06-13T07:31:31.309Z,102024.97
2023-06-13T07:33:58.179Z,102027.38
2023-06-13T07:36:24.991Z,102021.59
2023-06-13T07:38:52.370Z,102017.75
2023-06-13T07:41:19.192Z,102020.94
2023-06-13T07:43:46.072Z,102024.97
2023-06-13T07:46:12.822Z,102026.38
2023-06-13T07:48:39.577Z,102023.19
2023-06-13T07:51:06.709Z,102030.63
2023-06-13T07:53:33.573Z,102025.59
2023-06-13T07:56:00.591Z,102025.88
2023-06-13T07:58:27.246Z,102026.25
2023-06-13T08:00:53.932Z,102023.28
2023-06-13T08:03:23.141Z,102024.59
2023-06-13T08:05:52.182Z,102023.13
2023-06-13T08:08:18.861Z,102013.75
2023-06-13T08:10:45.608Z,102006.13
2023-06-13T08:13:12.450Z,102011.81
2023-06-13T08:15:39.335Z,102014.00
2023-06-13T08:18:06.393Z,102018.88
2023-06-13T08:20:33.220Z,102012.31
2023-06-13T08:23:01.007Z,102009.19
2023-06-13T08:25:27.735Z,102014.19
2023-06-13T08:27:54.644Z,102005.66
2023-06-13T08:30:21.475Z,102018.00
2023-06-13T08:32:49.421Z,102005.34
2023-06-13T08:35:16.615Z,101990.53
2023-06-13T08:37:43.610Z,101996.41
2023-06-13T08:40:11.789Z,101988.72
2023-06-13T08:42:39.595Z,101991.75
2023-06-13T08:45:08.650Z,101988.53
2023-06-13T08:47:39.079Z,101988.00
2023-06-13T08:50:08.090Z,101993.84
2023-06-13T08:52:42.602Z,101995.13
2023-06-13T08:55:45.974Z,101988.22
2023-06-13T08:58:04.172Z,101999.69
2023-06-13T09:00:37.198Z,101989.50
2023-06-13T09:03:07.796Z,101992.00
2023-06-13T09:05:34.916Z,101999.69
2023-06-13T09:08:27.956Z,101997.19
2023-06-13T09:10:51.508Z,101988.50
2023-06-13T09:13:18.751Z,101984.59
2023-06-13T09:15:46.581Z,101977.03
2023-06-13T09:18:14.094Z,101988.25
2023-06-13T09:20:41.060Z,101987.81
2023-06-13T09:23:08.754Z,101972.09
2023-06-13T09:25:37.658Z,101980.22
2023-06-13T09:28:29.757Z,101990.69
2023-06-13T09:30:58.203Z,101977.22
2023-06-13T09:33:25.724Z,101975.44
2023-06-13T09:35:53.396Z,101987.09
2023-06-13T09:38:24.823Z,101974.47
2023-06-13T09:40:55.683Z,101984.63
2023-06-13T09:43:23.867Z,101978.72
2023-06-13T09:45:52.182Z,101976.50
2023-06-13T09:48:19.331Z,101971.47
2023-06-13T09:50:46.244Z,101975.09
2023-06-13T09:53:13.265Z,101972.50
2023-06-13T09:55:40.098Z,101968.22
2023-06-13T09:58:22.567Z,101976.38
2023-06-13T10:01:00.766Z,101964.31
2023-06-13T10:03:31.365Z,101960.50
2023-06-13T10:06:02.138Z,101958.00
2023-06-13T10:08:29.180Z,101962.31
2023-06-13T10:10:56.998Z,101960.94
2023-06-13T10:13:27.127Z,101953.66
2023-06-13T10:15:57.736Z,101937.56
2023-06-13T10:18:32.232Z,101940.56
2023-06-13T10:21:01.077Z,101949.69
2023-06-13T10:23:30.174Z,101950.38
2023-06-13T10:26:03.049Z,101945.59
2023-06-13T10:28:51.853Z,101941.41
2023-06-13T10:31:37.299Z,101939.88
2023-06-13T10:34:10.617Z,101936.59
2023-06-13T10:37:15.192Z,101937.13
2023-06-13T10:39:59.690Z,101935.84
2023-06-13T10:42:38.350Z,101925.31
2023-06-13T10:45:16.914Z,101923.25
2023-06-13T10:47:44.391Z,101935.50
2023-06-13T10:50:16.251Z,101929.84
2023-06-13T10:52:50.495Z,101926.06
2023-06-13T10:55:28.533Z,101922.19
2023-06-13T10:58:02.402Z,101923.44
2023-06-13T11:00:32.171Z,101921.81
2023-06-13T11:03:06.846Z,101921.13
2023-06-13T11:05:49.347Z,101916.44
2023-06-13T11:08:20.165Z,101912.59
2023-06-13T11:10:49.665Z,101916.34
2023-06-13T11:13:33.493Z,101907.16
2023-06-13T11:16:18.868Z,101897.13
2023-06-13T11:18:49.305Z,101900.19
2023-06-13T11:21:16.224Z,101894.31
2023-06-13T11:23:50.956Z,101890.03
2023-06-13T11:26:21.432Z,101893.59
2023-06-13T11:28:52.489Z,101887.13
2023-06-13T11:31:20.543Z,101895.75
2023-06-13T11:33:49.830Z,101883.56
2023-06-13T11:36:19.730Z,101877.09
2023-06-13T11:38:58.545Z,101879.97
2023-06-13T11:41:26.127Z,101879.66
2023-06-13T11:43:52.963Z,101879.22
2023-06-13T11:46:20.487Z,101881.31
2023-06-13T11:48:51.883Z,101877.69
2023-06-13T11:51:19.924Z,101878.72
2023-06-13T11:53:57.960Z,101875.16
2023-06-13T11:56:26.441Z,101871.53
2023-06-13T11:58:55.117Z,101864.88
2023-06-13T12:01:27.784Z,101863.44
2023-06-13T12:04:01.751Z,101862.66
2023-06-13T12:06:28.746Z,101861.69
2023-06-13T12:08:55.700Z,101860.69
2023-06-13T12:11:26.359Z,101849.56
2023-06-13T12:13:58.600Z,101843.97
2023-06-13T12:16:27.963Z,101851.63
2023-06-13T12:18:55.357Z,101848.13
2023-06-13T12:21:30.455Z,101847.41
2023-06-13T12:23:59.550Z,101846.84
2023-06-13T12:26:29.789Z,101848.13
2023-06-13T12:28:58.301Z,101845.69
2023-06-13T12:31:59.960Z,101839.78
2023-06-13T12:34:36.762Z,101839.03
2023-06-13T12:37:06.186Z,101833.72
2023-06-13T12:39:34.285Z,101822.16
2023-06-13T12:42:11.856Z,101821.91
2023-06-13T12:44:38.648Z,101824.00
2023-06-13T12:47:07.239Z,101824.16
2023-06-13T12:49:38.566Z,101832.03
2023-06-13T12:52:15.615Z,101826.88
2023-06-13T12:54:42.988Z,101836.31
2023-06-13T12:57:11.489Z,101824.00
2023-06-13T12:59:48.656Z,101824.88
2023-06-13T13:02:18.732Z,101823.06
2023-06-13T13:04:45.954Z,101827.53
2023-06-13T13:07:14.282Z,101815.59
2023-06-13T13:09:44.508Z,101814.94
2023-06-13T13:12:15.103Z,101812.50
2023-06-13T13:14:42.682Z,101819.53
2023-06-13T13:17:09.503Z,101815.78
2023-06-13T13:19:36.313Z,101813.91
2023-06-13T13:22:03.529Z,101808.53
2023-06-13T13:24:34.359Z,101812.31
2023-06-13T13:27:02.970Z,101816.63
2023-06-13T13:29:29.740Z,101818.66
2023-06-13T13:31:59.336Z,101813.00
2023-06-13T13:34:26.635Z,101816.63
2023-06-13T13:36:54.990Z,101815.81
2023-06-13T13:39:22.502Z,101809.28
2023-06-13T13:41:49.410Z,101811.84
2023-06-13T13:44:16.351Z,101807.06
2023-06-13T13:46:43.277Z,101808.44
2023-06-13T13:49:10.296Z,101810.97
2023-06-13T13:51:37.422Z,101806.00
2023-06-13T13:54:04.642Z,101804.97
2023-06-13T13:56:31.398Z,101804.09
2023-06-13T13:58:58.152Z,101803.41
2023-06-13T14:01:25.079Z,101799.78
2023-06-13T14:03:51.896Z,101799.47
2023-06-13T14:06:18.756Z,101802.38
2023-06-13T14:08:45.471Z,101793.25
2023-06-13T14:11:12.183Z,101799.38
2023-06-13T14:13:38.985Z,101794.00
2023-06-13T14:16:06.184Z,101794.81
2023-06-13T14:18:33.895Z,101792.22
2023-06-13T14:21:01.382Z,101784.03
2023-06-13T14:23:28.304Z,101794.00
2023-06-13T14:25:55.065Z,101796.44
2023-06-13T14:28:21.904Z,101790.91
2023-06-13T14:30:48.720Z,101793.97
2023-06-13T14:33:18.101Z,101794.44
2023-06-13T14:35:45.285Z,101798.19
2023-06-13T14:38:12.431Z,101795.94
2023-06-13T14:40:39.231Z,101790.94
2023-06-13T14:43:07.382Z,101784.94
2023-06-13T14:45:34.129Z,101787.69
2023-06-13T14:48:01.111Z,101795.06
2023-06-13T14:50:27.945Z,101792.47
2023-06-13T14:52:54.712Z,101796.97
2023-06-13T14:55:22.227Z,101800.94
2023-06-13T14:57:49.438Z,101795.34
2023-06-13T15:00:16.903Z,101795.75
2023-06-13T15:02:43.822Z,101797.00
2023-06-13T15:05:10.673Z,101797.03
2023-06-13T15:07:37.491Z,101790.84
2023-06-13T15:10:05.352Z,101789.66
2023-06-13T15:12:32.106Z,101791.19
2023-06-13T15:14:58.830Z,101788.44
2023-06-13T15:17:26.085Z,101793.91
2023-06-13T15:19:53.102Z,101793.19
2023-06-13T15:22:19.977Z,101790.16
2023-06-13T15:24:46.733Z,101791.38
2023-06-13T15:27:14.147Z,101787.59
2023-06-13T15:29:40.916Z,101784.50
2023-06-13T15:32:08.097Z,101785.91
2023-06-13T15:34:36.328Z,101788.41
2023-06-13T15:37:03.307Z,101788.56
2023-06-13T15:39:30.081Z,101789.59
2023-06-13T15:41:56.858Z,101785.75
2023-06-13T15:44:24.045Z,101778.72
2023-06-13T15:46:50.790Z,101787.97
2023-06-13T15:49:17.534Z,101783.59
2023-06-13T15:51:44.407Z,101783.72
2023-06-13T15:54:11.177Z,101789.28
2023-06-13T15:56:38.192Z,101787.50
2023-06-13T15:59:05.143Z,101785.19
2023-06-13T16:01:31.937Z,101783.22
2023-06-13T16:03:58.842Z,101780.84
2023-06-13T16:06:25.830Z,101781.72
2023-06-13T16:08:52.498Z,101782.63
2023-06-13T16:11:19.453Z,101781.78
2023-06-13T16:13:46.342Z,101777.03
2023-06-13T16:16:13.054Z,101779.28
2023-06-13T16:18:40.269Z,101791.63
2023-06-13T16:21:07.193Z,101796.44
2023-06-13T16:23:34.280Z,101788.16
2023-06-13T16:26:01.245Z,101794.31
2023-06-13T16:28:27.910Z,101791.56
2023-06-13T16:30:54.644Z,101785.72
2023-06-13T16:33:21.423Z,101786.41
2023-06-13T16:35:48.156Z,101786.94
2023-06-13T16:38:15.638Z,101787.31
2023-06-13T16:40:43.193Z,101789.03
2023-06-13T16:43:10.494Z,101786.50
2023-06-13T16:45:37.533Z,101787.50
2023-06-13T16:48:04.743Z,101783.22
2023-06-13T16:50:31.812Z,101782.31
2023-06-13T16:52:59.569Z,101784.75
2023-06-13T16:55:26.915Z,101787.16
2023-06-13T16:57:54.778Z,101786.50
2023-06-13T17:00:21.608Z,101793.03
2023-06-13T17:02:48.542Z,101788.25
2023-06-13T17:05:15.632Z,101785.56
2023-06-13T17:07:43.262Z,101789.19
2023-06-13T17:10:10.710Z,101793.78
2023-06-13T17:12:42.345Z,101792.00
2023-06-13T17:15:10.254Z,101788.09
2023-06-13T17:17:37.086Z,101795.19
2023-06-13T17:20:06.555Z,101789.34
2023-06-13T17:22:33.495Z,101780.78
2023-06-13T17:25:00.436Z,101793.16
2023-06-13T17:27:28.259Z,101791.75
2023-06-13T17:29:55.304Z,101796.56
2023-06-13T17:32:24.986Z,101794.50
2023-06-13T17:34:51.932Z,101796.91
2023-06-13T17:37:19.288Z,101789.00
2023-06-13T17:39:46.284Z,101795.16
2023-06-13T17:42:13.076Z,101794.81
2023-06-13T17:44:39.827Z,101795.38
2023-06-13T17:47:07.708Z,101798.22
2023-06-13T17:49:34.730Z,101801.69
2023-06-13T17:52:02.134Z,101797.44
2023-06-13T17:54:28.986Z,101796.16
2023-06-13T17:56:56.470Z,101801.97
2023-06-13T17:59:23.282Z,101802.25
2023-06-13T18:01:50.479Z,101806.38
2023-06-13T18:04:18.444Z,101807.94
2023-06-13T18:06:45.369Z,101804.00
2023-06-13T18:09:12.178Z,101798.75
2023-06-13T18:11:38.938Z,101809.19
2023-06-13T18:14:09.475Z,101802.38
2023-06-13T18:16:37.344Z,101797.06
2023-06-13T18:19:05.824Z,101795.09
2023-06-13T18:21:34.353Z,101792.59
2023-06-13T18:24:02.024Z,101798.44
2023-06-13T18:26:29.183Z,101799.00
2023-06-13T18:28:56.082Z,101806.31
2023-06-13T18:31:23.418Z,101806.28
2023-06-13T18:33:50.878Z,101809.91
2023-06-13T18:36:17.636Z,101820.78
2023-06-13T18:38:44.773Z,101812.50
2023-06-13T18:41:11.878Z,101808.66
2023-06-13T18:43:39.627Z,101802.66
2023-06-13T18:46:06.611Z,101813.56
2023-06-13T18:48:34.095Z,101817.03
2023-06-13T18:51:01.132Z,101820.66
2023-06-13T18:53:28.260Z,101814.16
2023-06-13T18:55:55.683Z,101815.19
2023-06-13T18:58:22.461Z,101818.91
2023-06-13T19:00:49.746Z,101823.34
2023-06-13T19:03:16.955Z,101832.00
2023-06-13T19:05:43.847Z,101828.78
2023-06-13T19:08:10.875Z,101831.00
2023-06-13T19:10:37.962Z,101827.41
2023-06-13T19:13:05.105Z,101834.72
2023-06-13T19:15:33.682Z,101831.13
2023-06-13T19:18:01.123Z,101831.63
2023-06-13T19:20:28.356Z,101837.28
2023-06-13T19:22:55.325Z,101840.47
2023-06-13T19:25:26.490Z,101829.22
2023-06-13T19:27:58.267Z,101834.50
2023-06-13T19:30:30.659Z,101845.31
2023-06-13T19:32:57.569Z,101841.91
2023-06-13T19:35:25.212Z,101847.31
2023-06-13T19:37:51.868Z,101847.03
2023-06-13T19:40:20.148Z,101848.59
2023-06-13T19:42:51.325Z,101841.47
2023-06-13T19:45:20.688Z,101847.28
2023-06-13T19:47:49.651Z,101853.50
2023-06-13T19:50:18.675Z,101855.78
2023-06-13T19:52:45.451Z,101854.72
2023-06-13T19:55:14.179Z,101865.78
2023-06-13T19:57:43.087Z,101859.84
2023-06-13T20:00:13.808Z,101864.06
2023-06-13T20:02:41.439Z,101854.75
2023-06-13T20:05:10.609Z,101859.81
2023-06-13T20:07:40.220Z,101852.47
2023-06-13T20:10:08.551Z,101867.63
2023-06-13T20:12:36.376Z,101867.09
2023-06-13T20:15:06.127Z,101863.84
2023-06-13T20:17:33.520Z,101873.22
2023-06-13T20:20:06.936Z,101875.09
2023-06-13T20:22:34.393Z,101869.72
2023-06-13T20:25:01.872Z,101876.38
2023-06-13T20:27:29.503Z,101880.84
2023-06-13T20:29:56.346Z,101881.47
2023-06-13T20:32:25.243Z,101877.25
2023-06-13T20:34:52.204Z,101879.06
2023-06-13T20:37:19.140Z,101874.75
2023-06-13T20:39:46.073Z,101882.28
2023-06-13T20:42:15.909Z,101880.78
2023-06-13T20:44:48.736Z,101882.13
2023-06-13T20:47:16.964Z,101882.41
2023-06-13T20:49:43.696Z,101884.84
2023-06-13T20:52:10.725Z,101898.72
2023-06-13T20:54:37.781Z,101887.47
2023-06-13T20:57:05.123Z,101898.44
2023-06-13T20:59:31.929Z,101899.69
2023-06-13T21:01:58.618Z,101904.63
2023-06-13T21:04:26.198Z,101914.72
2023-06-13T21:06:54.294Z,101907.81
2023-06-13T21:09:21.767Z,101907.03
2023-06-13T21:11:48.428Z,101901.81
2023-06-13T21:14:16.064Z,101907.44
2023-06-13T21:16:47.684Z,101911.25
2023-06-13T21:19:19.317Z,101906.16
2023-06-13T21:21:47.151Z,101916.09
2023-06-13T21:24:13.877Z,101913.88
2023-06-13T21:26:40.611Z,101906.34
2023-06-13T21:29:07.305Z,101912.22
2023-06-13T21:31:34.163Z,101906.50
2023-06-13T21:34:00.880Z,101910.56
2023-06-13T21:36:27.536Z,101912.09
2023-06-13T21:38:54.291Z,101909.00
2023-06-13T21:41:22.451Z,101906.47
2023-06-13T21:43:49.176Z,101910.31
2023-06-13T21:46:16.164Z,101903.47
2023-06-13T21:48:43.550Z,101909.31
2023-06-13T21:51:10.455Z,101914.28
2023-06-13T21:53:37.125Z,101918.25
2023-06-13T21:56:03.919Z,101924.88
2023-06-13T21:58:30.618Z,101925.22
2023-06-13T22:00:57.412Z,101922.66
2023-06-13T22:03:24.256Z,101919.94
2023-06-13T22:05:51.068Z,101917.44
2023-06-13T22:08:18.697Z,101916.63
2023-06-13T22:10:45.901Z,101917.78
2023-06-13T22:13:12.669Z,101927.75
2023-06-13T22:15:40.791Z,101923.56
2023-06-13T22:18:07.657Z,101924.66
2023-06-13T22:20:34.725Z,101930.59
2023-06-13T22:23:01.647Z,101927.44
2023-06-13T22:25:29.499Z,101933.09
2023-06-13T22:27:57.291Z,101931.53
2023-06-13T22:30:26.177Z,101928.19
2023-06-13T22:32:54.399Z,101927.44
2023-06-13T22:35:21.598Z,101934.81
2023-06-13T22:37:49.263Z,101928.78
2023-06-13T22:40:16.657Z,101939.00
2023-06-13T22:42:43.750Z,101930.41
2023-06-13T22:45:10.584Z,101933.44
2023-06-13T22:47:40.832Z,101939.22
2023-06-13T22:50:09.268Z,101930.69
2023-06-13T22:52:36.476Z,101934.41
2023-06-13T22:55:04.261Z,101934.56
2023-06-13T22:57:31.872Z,101936.38
2023-06-13T22:59:59.051Z,101928.59
2023-06-13T23:02:25.980Z,101936.81
2023-06-13T23:04:54.260Z,101932.56
2023-06-13T23:07:22.003Z,101930.13
2023-06-13T23:09:48.808Z,101937.38
2023-06-13T23:12:15.663Z,101932.41
2023-06-13T23:14:42.526Z,101931.81
2023-06-13T23:17:09.193Z,101938.19
2023-06-13T23:19:35.888Z,101928.72
2023-06-13T23:22:02.791Z,101934.44
2023-06-13T23:24:30.885Z,101938.47
2023-06-13T23:26:58.327Z,101943.13
2023-06-13T23:29:25.115Z,101935.22
2023-06-13T23:31:51.981Z,101943.53
2023-06-13T23:34:18.914Z,101939.41
2023-06-13T23:36:45.931Z,101937.00
2023-06-13T23:41:42.845Z,101939.63
2023-06-13T23:44:09.764Z,101936.22
2023-06-13T23:46:36.471Z,101938.19
2023-06-13T23:49:03.277Z,101933.81
2023-06-13T23:51:30.986Z,101935.69
2023-06-13T23:53:57.697Z,101943.81
2023-06-13T23:56:24.376Z,101940.41
2023-06-13T23:58:51.037Z,101940.56
